createdAt,value
2023-02-15T00:03:56.100Z,40.47
2023-02-15T00:07:01.798Z,34.92
2023-02-15T00:10:09.436Z,38.97
2023-02-15T00:13:13.294Z,34.53
2023-02-15T00:16:19.137Z,32.70
2023-02-15T00:19:23.756Z,35.22
2023-02-15T00:22:31.522Z,37.85
2023-02-15T00:25:35.334Z,36.47
2023-02-15T00:28:41.576Z,40.00
2023-02-15T00:31:45.632Z,38.58
2023-02-15T00:34:51.550Z,42.85
2023-02-15T00:37:58.333Z,43.20
2023-02-15T00:41:06.194Z,42.17
2023-02-15T00:44:10.458Z,35.45
2023-02-15T00:47:16.352Z,36.15
2023-02-15T00:50:22.247Z,41.20
2023-02-15T00:53:32.490Z,40.92
2023-02-15T00:56:36.273Z,32.60
2023-02-15T00:59:43.262Z,41.72
2023-02-15T01:02:47.293Z,41.25
2023-02-15T01:05:53.973Z,42.88
2023-02-15T01:12:05.611Z,44.38
2023-02-15T01:15:10.155Z,40.95
2023-02-15T01:18:17.656Z,44.85
2023-02-15T01:21:23.359Z,42.72
2023-02-15T01:24:31.146Z,36.45
2023-02-15T01:27:35.061Z,46.40
2023-02-15T01:30:41.170Z,43.28
2023-02-15T01:33:45.270Z,53.10
2023-02-15T01:36:51.283Z,48.53
2023-02-15T01:39:57.120Z,39.63
2023-02-15T01:43:03.095Z,43.15
2023-02-15T01:46:07.219Z,45.75
2023-02-15T01:49:17.814Z,42.28
2023-02-15T01:52:21.727Z,54.05
2023-02-15T01:55:36.440Z,49.13
2023-02-15T01:58:41.051Z,42.88
2023-02-15T02:01:47.718Z,46.42
2023-02-15T02:04:53.558Z,48.00
2023-02-15T02:08:02.298Z,47.50
2023-02-15T02:11:12.955Z,45.42
2023-02-15T02:14:19.648Z,41.47
2023-02-15T02:17:31.063Z,52.63
2023-02-15T02:21:05.054Z,43.97
2023-02-15T02:24:31.260Z,50.45
2023-02-15T02:27:41.880Z,47.60
2023-02-15T02:31:18.494Z,47.00
2023-02-15T02:34:31.841Z,40.95
2023-02-15T02:37:46.019Z,42.92
2023-02-15T02:41:00.318Z,42.78
2023-02-15T02:44:12.938Z,44.72
2023-02-15T02:47:24.457Z,40.33
2023-02-15T02:50:32.148Z,41.05
2023-02-15T02:53:38.217Z,45.70
2023-02-15T02:56:47.212Z,49.53
2023-02-15T02:59:55.041Z,45.78
2023-02-15T03:03:05.253Z,46.80
2023-02-15T03:06:19.240Z,49.78
2023-02-15T03:09:34.895Z,49.50
2023-02-15T03:12:42.890Z,45.72
2023-02-15T03:16:01.081Z,49.25
2023-02-15T03:19:11.861Z,46.20
2023-02-15T03:22:21.452Z,44.35
2023-02-15T03:25:32.283Z,44.20
2023-02-15T03:28:42.160Z,41.00
2023-02-15T03:31:52.326Z,47.75
2023-02-15T03:34:56.951Z,38.28
2023-02-15T03:38:05.908Z,41.03
2023-02-15T03:41:14.153Z,40.05
2023-02-15T03:44:24.830Z,38.97
2023-02-15T03:47:32.469Z,47.63
2023-02-15T03:51:05.412Z,35.92
2023-02-15T03:54:13.277Z,41.15
2023-02-15T03:57:35.699Z,38.45
2023-02-15T04:00:59.362Z,38.33
2023-02-15T04:04:11.487Z,43.25
2023-02-15T04:07:15.393Z,38.85
2023-02-15T04:10:36.285Z,42.28
2023-02-15T04:13:40.362Z,45.42
2023-02-15T04:16:44.471Z,36.85
2023-02-15T04:20:01.549Z,41.30
2023-02-15T04:23:22.512Z,37.75
2023-02-15T04:26:28.260Z,40.83
2023-02-15T04:29:34.428Z,46.10
2023-02-15T04:32:38.889Z,37.35
2023-02-15T04:35:47.134Z,40.42
2023-02-15T04:38:51.027Z,37.33
2023-02-15T04:41:58.817Z,41.55
2023-02-15T04:45:02.711Z,48.08
2023-02-15T04:48:09.541Z,41.55
2023-02-15T04:51:13.416Z,43.13
2023-02-15T04:54:19.301Z,44.63
2023-02-15T04:57:25.101Z,39.22
2023-02-15T05:00:30.944Z,37.92
2023-02-15T05:03:34.732Z,41.20
2023-02-15T05:06:40.792Z,42.35
2023-02-15T05:09:44.839Z,40.30
2023-02-15T05:12:52.609Z,44.65
2023-02-15T05:15:56.880Z,39.83
2023-02-15T05:19:02.917Z,38.70
2023-02-15T05:22:06.736Z,37.67
2023-02-15T05:25:37.607Z,41.42
2023-02-15T05:28:43.328Z,41.33
2023-02-15T05:31:49.572Z,38.40
2023-02-15T05:34:53.427Z,39.42
2023-02-15T05:37:59.285Z,36.03
2023-02-15T05:41:03.124Z,32.80
2023-02-15T05:44:10.870Z,36.13
2023-02-15T05:47:14.740Z,40.33
2023-02-15T05:50:21.140Z,35.95
2023-02-15T05:53:24.925Z,36.15
2023-02-15T05:56:30.709Z,37.15
2023-02-15T06:02:42.426Z,39.03
2023-02-15T06:05:46.240Z,41.47
2023-02-15T06:08:52.049Z,38.05
2023-02-15T06:11:55.888Z,31.88
2023-02-15T06:15:03.702Z,36.42
2023-02-15T06:18:07.744Z,43.15
2023-02-15T06:21:13.781Z,34.75
2023-02-15T06:24:17.696Z,35.42
2023-02-15T06:27:23.550Z,32.75
2023-02-15T06:30:29.319Z,41.63
2023-02-15T06:33:35.719Z,39.65
2023-02-15T06:36:39.498Z,42.65
2023-02-15T06:39:45.476Z,38.13
2023-02-15T06:42:49.382Z,40.13
2023-02-15T06:45:57.154Z,38.38
2023-02-15T06:49:01.014Z,35.75
2023-02-15T06:52:06.970Z,34.45
2023-02-15T06:55:10.812Z,38.47
2023-02-15T06:58:16.756Z,36.38
2023-02-15T07:01:22.587Z,37.50
2023-02-15T07:04:30.553Z,41.15
2023-02-15T07:07:34.452Z,35.95
2023-02-15T07:10:40.303Z,34.92
2023-02-15T07:13:43.051Z,32.78
2023-02-15T07:16:50.827Z,33.88
2023-02-15T07:19:54.655Z,33.22
2023-02-15T07:23:00.434Z,38.58
2023-02-15T07:26:04.359Z,42.75
2023-02-15T07:29:10.281Z,35.08
2023-02-15T07:32:16.368Z,40.25
2023-02-15T07:35:22.385Z,38.20
2023-02-15T07:38:27.935Z,37.67
2023-02-15T07:41:33.845Z,37.83
2023-02-15T07:44:37.677Z,41.50
2023-02-15T07:47:45.442Z,37.95
2023-02-15T07:50:49.299Z,36.25
2023-02-15T07:53:55.631Z,39.25
2023-02-15T07:56:59.438Z,43.47
2023-02-15T08:00:06.318Z,36.80
2023-02-15T08:03:18.499Z,44.85
2023-02-15T08:06:25.528Z,42.75
2023-02-15T08:09:29.345Z,46.80
2023-02-15T08:12:35.200Z,49.75
2023-02-15T08:15:39.035Z,49.20
2023-02-15T08:18:46.785Z,54.13
2023-02-15T08:21:52.495Z,63.35
2023-02-15T08:24:58.343Z,62.10
2023-02-15T08:28:02.169Z,58.47
2023-02-15T08:31:08.955Z,70.30
2023-02-15T08:34:18.668Z,75.20
2023-02-15T08:37:26.095Z,80.47
2023-02-15T08:40:29.966Z,83.43
2023-02-15T08:43:35.772Z,76.75
2023-02-15T08:46:41.916Z,87.28
2023-02-15T08:49:49.636Z,88.10
2023-02-15T08:52:53.460Z,101.78
2023-02-15T08:55:59.735Z,110.68
2023-02-15T08:59:04.556Z,106.38
2023-02-15T09:02:12.710Z,95.25
2023-02-15T09:05:18.746Z,90.25
2023-02-15T09:08:24.545Z,72.93
2023-02-15T09:14:35.980Z,64.63
2023-02-15T09:17:39.851Z,72.10
2023-02-15T09:20:48.170Z,70.53
2023-02-15T09:23:54.589Z,64.95
2023-02-15T09:27:00.410Z,55.42
2023-02-15T09:33:10.046Z,53.83
2023-02-15T09:39:27.141Z,52.28
2023-02-15T09:42:45.348Z,63.90
2023-02-15T09:46:11.082Z,53.85
2023-02-15T09:49:25.816Z,50.10
2023-02-15T09:52:48.907Z,51.60
2023-02-15T09:56:00.602Z,48.90
2023-02-15T09:59:16.656Z,52.33
2023-02-15T10:02:36.268Z,59.03
2023-02-15T10:05:50.404Z,50.35
2023-02-15T10:09:27.809Z,61.38
2023-02-15T10:12:51.993Z,54.90
2023-02-15T10:16:12.955Z,53.05
2023-02-15T10:19:28.548Z,55.50
2023-02-15T10:22:43.301Z,52.63
2023-02-15T10:25:57.473Z,45.17
2023-02-15T10:29:09.293Z,51.00
2023-02-15T10:32:25.238Z,51.10
2023-02-15T10:35:36.815Z,54.78
2023-02-15T10:38:50.249Z,40.90
2023-02-15T10:42:06.438Z,46.00
2023-02-15T10:45:25.223Z,46.30
2023-02-15T10:48:44.380Z,44.70
2023-02-15T10:52:04.098Z,51.53
2023-02-15T10:55:14.884Z,49.53
2023-02-15T10:58:34.321Z,50.38
2023-02-15T11:01:43.968Z,49.95
2023-02-15T11:04:59.450Z,44.22
2023-02-15T11:08:08.432Z,47.15
2023-02-15T11:11:18.764Z,44.15
2023-02-15T11:14:35.419Z,46.20
2023-02-15T11:17:45.750Z,51.17
2023-02-15T11:20:56.415Z,48.22
2023-02-15T11:24:03.202Z,48.85
2023-02-15T11:27:19.298Z,44.60
2023-02-15T11:30:30.547Z,48.70
2023-02-15T11:33:39.144Z,46.65
2023-02-15T11:36:47.891Z,45.03
2023-02-15T11:39:55.106Z,44.60
2023-02-15T11:43:06.891Z,45.70
2023-02-15T11:46:15.425Z,49.35
2023-02-15T11:49:27.747Z,53.70
2023-02-15T11:52:31.754Z,49.38
2023-02-15T11:55:38.278Z,57.65
2023-02-15T11:58:45.648Z,49.22
2023-02-15T12:01:53.622Z,47.03
2023-02-15T12:05:00.603Z,51.80
2023-02-15T12:08:15.098Z,43.90
2023-02-15T12:11:24.547Z,49.60
2023-02-15T12:14:50.830Z,50.83
2023-02-15T12:17:57.177Z,49.70
2023-02-15T12:21:05.541Z,44.88
2023-02-15T12:24:20.077Z,49.50
2023-02-15T12:27:30.054Z,51.50
2023-02-15T12:30:36.961Z,46.67
2023-02-15T12:33:46.463Z,48.58
2023-02-15T12:36:54.703Z,52.00
2023-02-15T12:40:01.996Z,46.53
2023-02-15T12:43:09.299Z,52.95
2023-02-15T12:46:24.787Z,45.05
2023-02-15T12:49:31.874Z,48.60
2023-02-15T12:52:37.813Z,48.20
2023-02-15T12:55:51.387Z,50.35
2023-02-15T12:59:07.573Z,45.83
2023-02-15T13:05:31.730Z,45.55
2023-02-15T13:08:38.419Z,42.42
2023-02-15T13:11:46.161Z,43.05
2023-02-15T13:14:55.133Z,44.03
2023-02-15T13:18:01.941Z,58.63
2023-02-15T13:21:15.345Z,45.88
2023-02-15T13:24:25.679Z,44.33
2023-02-15T13:27:37.589Z,51.28
2023-02-15T13:30:48.229Z,50.13
2023-02-15T13:33:55.655Z,49.38
2023-02-15T13:37:13.601Z,50.13
2023-02-15T13:40:24.855Z,43.40
2023-02-15T13:43:39.865Z,47.28
2023-02-15T13:46:54.944Z,41.38
2023-02-15T13:50:24.252Z,47.88
2023-02-15T13:53:59.276Z,42.40
2023-02-15T13:57:32.779Z,42.03
2023-02-15T14:00:49.741Z,48.22
2023-02-15T14:04:26.073Z,46.53
2023-02-15T14:07:41.234Z,40.15
2023-02-15T14:10:54.071Z,46.78
2023-02-15T14:14:18.156Z,47.42
2023-02-15T14:17:31.399Z,39.45
2023-02-15T14:20:45.620Z,41.17
2023-02-15T14:24:09.418Z,46.28
2023-02-15T14:27:25.728Z,50.55
2023-02-15T14:30:36.906Z,37.75
2023-02-15T14:33:43.109Z,47.13
2023-02-15T14:36:49.433Z,43.28
2023-02-15T14:40:14.137Z,49.65
2023-02-15T14:43:30.011Z,45.00
2023-02-15T14:46:41.273Z,51.08
2023-02-15T14:49:47.121Z,44.78
2023-02-15T14:53:18.905Z,43.78
2023-02-15T14:56:28.750Z,45.30
2023-02-15T14:59:41.150Z,47.80
2023-02-15T15:02:52.812Z,43.15
2023-02-15T15:06:01.355Z,41.95
2023-02-15T15:09:15.316Z,44.08
2023-02-15T15:12:42.025Z,40.72
2023-02-15T15:15:49.325Z,42.70
2023-02-15T15:18:56.063Z,44.42
2023-02-15T15:22:06.406Z,41.97
2023-02-15T15:25:30.049Z,44.65
2023-02-15T15:29:01.161Z,44.58
2023-02-15T15:32:05.728Z,48.80
2023-02-15T15:35:26.173Z,48.65
2023-02-15T15:38:43.612Z,43.95
2023-02-15T15:41:56.308Z,50.40
2023-02-15T15:45:35.126Z,44.10
2023-02-15T15:48:43.307Z,46.63
2023-02-15T15:51:50.835Z,48.10
2023-02-15T15:55:00.541Z,41.08
2023-02-15T15:58:08.092Z,43.85
2023-02-15T16:01:14.156Z,40.53
2023-02-15T16:04:27.361Z,37.40
2023-02-15T16:07:35.136Z,38.85
2023-02-15T16:10:39.496Z,47.17
2023-02-15T16:13:46.223Z,39.22
2023-02-15T16:16:53.505Z,45.75
2023-02-15T16:20:03.867Z,42.17
2023-02-15T16:23:25.311Z,38.85
2023-02-15T16:26:51.766Z,32.75
2023-02-15T16:33:09.122Z,38.92
2023-02-15T16:36:14.291Z,45.45
2023-02-15T16:39:23.026Z,38.95
2023-02-15T16:42:27.463Z,45.55
2023-02-15T16:45:37.351Z,43.05
2023-02-15T16:48:45.262Z,42.08
2023-02-15T16:51:58.156Z,42.17
2023-02-15T16:55:07.237Z,44.25
2023-02-15T16:58:18.112Z,48.60
2023-02-15T17:01:25.989Z,45.53
2023-02-15T17:04:34.950Z,43.90
2023-02-15T17:07:42.653Z,46.63
2023-02-15T17:11:16.840Z,47.95
2023-02-15T17:14:29.051Z,47.90
2023-02-15T17:20:42.128Z,44.13
2023-02-15T17:23:50.264Z,44.92
2023-02-15T17:27:00.287Z,45.78
2023-02-15T17:30:17.458Z,48.15
2023-02-15T17:33:25.988Z,47.72
2023-02-15T17:36:33.219Z,44.78
2023-02-15T17:39:37.042Z,46.65
2023-02-15T17:42:44.777Z,46.00
2023-02-15T17:45:51.314Z,45.45
2023-02-15T17:48:57.916Z,42.72
2023-02-15T17:52:02.018Z,45.50
2023-02-15T17:55:29.608Z,51.78
2023-02-15T17:58:35.447Z,46.30
2023-02-15T18:02:03.820Z,56.38
2023-02-15T18:05:27.221Z,47.13
2023-02-15T18:08:46.174Z,51.28
2023-02-15T18:11:50.087Z,43.55
2023-02-15T18:14:59.109Z,53.78
2023-02-15T18:18:04.235Z,46.05
2023-02-15T18:21:12.178Z,46.45
2023-02-15T18:24:19.212Z,48.95
2023-02-15T18:27:25.190Z,44.20
2023-02-15T18:33:39.813Z,50.17
2023-02-15T18:36:46.508Z,45.13
2023-02-15T18:39:54.720Z,44.58
2023-02-15T18:42:58.586Z,45.40
2023-02-15T18:46:06.489Z,46.42
2023-02-15T18:49:10.338Z,42.92
2023-02-15T18:52:18.343Z,49.70
2023-02-15T18:55:24.493Z,41.65
2023-02-15T18:58:30.363Z,39.97
2023-02-15T19:04:42.591Z,41.15
2023-02-15T19:07:47.941Z,46.45
2023-02-15T19:10:53.927Z,41.92
2023-02-15T19:13:57.773Z,39.80
2023-02-15T19:17:05.844Z,41.33
2023-02-15T19:20:16.648Z,46.28
2023-02-15T19:23:26.080Z,40.97
2023-02-15T19:26:44.379Z,43.17
2023-02-15T19:29:51.530Z,40.20
2023-02-15T19:32:57.653Z,45.22
2023-02-15T19:36:03.902Z,47.22
2023-02-15T19:39:08.049Z,40.10
2023-02-15T19:42:16.483Z,43.35
2023-02-15T19:45:22.450Z,43.17
2023-02-15T19:48:30.221Z,43.25
2023-02-15T19:51:34.414Z,39.63
2023-02-15T19:54:40.279Z,46.60
2023-02-15T20:00:51.001Z,36.63
2023-02-15T20:03:56.715Z,44.58
2023-02-15T20:07:03.879Z,42.53
2023-02-15T20:10:16.666Z,50.97
2023-02-15T20:13:23.813Z,47.40
2023-02-15T20:16:29.249Z,46.75
2023-02-15T20:19:38.414Z,42.42
2023-02-15T20:22:43.834Z,41.97
2023-02-15T20:25:49.825Z,48.65
2023-02-15T20:32:00.861Z,44.08
2023-02-15T20:35:07.737Z,48.70
2023-02-15T20:38:20.811Z,48.97
2023-02-15T20:41:46.286Z,46.60
2023-02-15T20:44:52.149Z,48.20
2023-02-15T20:47:56.306Z,53.80
2023-02-15T20:51:06.306Z,52.05
2023-02-15T20:54:15.688Z,48.40
2023-02-15T20:57:21.510Z,47.85
2023-02-15T21:00:27.616Z,52.28
2023-02-15T21:03:33.514Z,53.70
2023-02-15T21:09:44.963Z,47.00
2023-02-15T21:15:56.876Z,49.72
2023-02-15T21:19:00.705Z,47.90
2023-02-15T21:22:08.984Z,50.55
2023-02-15T21:25:16.072Z,52.20
2023-02-15T21:28:23.818Z,53.40
2023-02-15T21:31:28.061Z,53.83
2023-02-15T21:34:33.951Z,58.88
2023-02-15T21:37:40.612Z,51.05
2023-02-15T21:40:46.746Z,53.78
2023-02-15T21:44:03.719Z,52.95
2023-02-15T21:47:32.582Z,54.70
2023-02-15T21:50:50.709Z,52.28
2023-02-15T21:53:58.537Z,49.95
2023-02-15T21:57:02.953Z,56.95
2023-02-15T22:00:16.208Z,47.80
2023-02-15T22:03:20.016Z,49.78
2023-02-15T22:06:25.954Z,59.15
2023-02-15T22:09:32.704Z,53.17
2023-02-15T22:12:39.349Z,57.45
2023-02-15T22:15:45.962Z,59.30
2023-02-15T22:18:51.791Z,52.78
2023-02-15T22:21:55.663Z,65.13
2023-02-15T22:25:03.505Z,55.20
2023-02-15T22:28:08.238Z,55.92
2023-02-15T22:31:16.549Z,56.50
2023-02-15T22:34:27.853Z,55.25
2023-02-15T22:37:33.671Z,54.30
2023-02-15T22:40:39.447Z,55.60
2023-02-15T22:43:47.059Z,56.47
2023-02-15T22:46:50.947Z,63.90
2023-02-15T22:49:57.034Z,60.97
2023-02-15T22:53:02.091Z,61.08
2023-02-15T22:56:17.667Z,56.05
2023-02-15T22:59:27.741Z,59.38
2023-02-15T23:02:33.533Z,52.15
2023-02-15T23:05:37.427Z,58.33
2023-02-15T23:08:43.316Z,54.75
2023-02-15T23:14:56.862Z,52.25
2023-02-15T23:18:16.376Z,54.45
2023-02-15T23:21:23.159Z,54.28
2023-02-15T23:24:33.841Z,55.00
2023-02-15T23:27:53.026Z,61.33
2023-02-15T23:31:00.395Z,55.30
2023-02-15T23:34:15.440Z,65.72
2023-02-15T23:37:21.277Z,55.53
2023-02-15T23:40:38.287Z,53.15
2023-02-15T23:43:49.097Z,66.25
2023-02-15T23:46:54.502Z,56.08
2023-02-15T23:50:00.263Z,51.47
2023-02-15T23:53:04.420Z,59.20
2023-02-15T23:56:14.415Z,64.43
2023-02-15T23:59:21.915Z,60.50
